Terminal Aerodrome Forecast
Issued by NWS

Home | Current Version | Previous Version | Text Only | Print | Product List | Glossary On
Versions: 1 2 3 4 5 6 7 8 9 10 11 12
000
FTAK31 PAFA 281740
TAFABT
TAF
PABT 281740Z 2818/2918 VRB03KT P6SM VCSH FEW024 SCT050 OVC090
     FM282100 24010KT 6SM -SHRA BR SCT025 BKN035 OVC050
     FM291500 18004KT 4SM BR OVC015=

USA.gov is the U.S. government's official web portal to all federal, state and local government web resources and services.